sensor_id;sensor_type;location;lat;lon;timestamp;temperature;humidity
8557;DHT22;4316;53.840;10.762;2024-01-15T00:00:42;1.90;14.30
8557;DHT22;4316;53.840;10.762;2024-01-15T00:03:08;1.90;12.70
8557;DHT22;4316;53.840;10.762;2024-01-15T00:05:35;1.90;12.30
8557;DHT22;4316;53.840;10.762;2024-01-15T00:08:01;1.90;11.70
8557;DHT22;4316;53.840;10.762;2024-01-15T00:10:26;1.90;10.90
8557;DHT22;4316;53.840;10.762;2024-01-15T00:12:52;1.90;10.10
8557;DHT22;4316;53.840;10.762;2024-01-15T00:15:18;1.90;9.30
8557;DHT22;4316;53.840;10.762;2024-01-15T00:17:44;1.90;9.50
8557;DHT22;4316;53.840;10.762;2024-01-15T00:20:10;1.80;8.50
8557;DHT22;4316;53.840;10.762;2024-01-15T00:22:36;1.80;8.30
8557;DHT22;4316;53.840;10.762;2024-01-15T00:25:02;1.90;8.00
8557;DHT22;4316;53.840;10.762;2024-01-15T00:27:28;1.90;8.00
8557;DHT22;4316;53.840;10.762;2024-01-15T00:29:54;2.00;7.90
8557;DHT22;4316;53.840;10.762;2024-01-15T00:32:20;2.00;8.10
8557;DHT22;4316;53.840;10.762;2024-01-15T00:34:46;2.00;8.00
8557;DHT22;4316;53.840;10.762;2024-01-15T00:37:12;2.10;7.80
8557;DHT22;4316;53.840;10.762;2024-01-15T00:39:38;2.10;8.10
8557;DHT22;4316;53.840;10.762;2024-01-15T00:42:04;2.10;8.90
8557;DHT22;4316;53.840;10.762;2024-01-15T00:44:30;2.20;9.50
8557;DHT22;4316;53.840;10.762;2024-01-15T00:46:55;2.10;9.90
8557;DHT22;4316;53.840;10.762;2024-01-15T00:49:21;2.20;9.70
8557;DHT22;4316;53.840;10.762;2024-01-15T00:51:47;2.20;9.50
8557;DHT22;4316;53.840;10.762;2024-01-15T00:54:13;2.20;8.30
8557;DHT22;4316;53.840;10.762;2024-01-15T00:56:39;2.20;8.00
8557;DHT22;4316;53.840;10.762;2024-01-15T00:59:05;2.30;8.00
8557;DHT22;4316;53.840;10.762;2024-01-15T01:01:31;2.20;8.10
8557;DHT22;4316;53.840;10.762;2024-01-15T01:03:57;2.30;7.90
8557;DHT22;4316;53.840;10.762;2024-01-15T01:06:22;2.30;8.40
8557;DHT22;4316;53.840;10.762;2024-01-15T01:08:48;2.30;9.20
8557;DHT22;4316;53.840;10.762;2024-01-15T01:11:15;2.20;10.10
8557;DHT22;4316;53.840;10.762;2024-01-15T01:13:41;2.20;12.00
8557;DHT22;4316;53.840;10.762;2024-01-15T01:16:07;2.10;17.80
8557;DHT22;4316;53.840;10.762;2024-01-15T01:18:33;2.10;20.60
8557;DHT22;4316;53.840;10.762;2024-01-15T01:20:59;2.10;22.10
8557;DHT22;4316;53.840;10.762;2024-01-15T01:23:25;2.10;27.90
8557;DHT22;4316;53.840;10.762;2024-01-15T01:25:50;2.00;25.00
8557;DHT22;4316;53.840;10.762;2024-01-15T01:28:16;2.00;24.80
8557;DHT22;4316;53.840;10.762;2024-01-15T01:30:42;1.90;28.10
8557;DHT22;4316;53.840;10.762;2024-01-15T01:33:08;1.90;33.60
8557;DHT22;4316;53.840;10.762;2024-01-15T01:35:34;1.90;34.70
8557;DHT22;4316;53.840;10.762;2024-01-15T01:37:59;1.80;37.00
8557;DHT22;4316;53.840;10.762;2024-01-15T01:40:25;1.80;37.80
8557;DHT22;4316;53.840;10.762;2024-01-15T01:42:51;1.70;40.70
8557;DHT22;4316;53.840;10.762;2024-01-15T01:45:16;1.70;40.90
8557;DHT22;4316;53.840;10.762;2024-01-15T01:47:42;1.70;42.30
8557;DHT22;4316;53.840;10.762;2024-01-15T01:50:08;1.60;44.90
8557;DHT22;4316;53.840;10.762;2024-01-15T01:52:34;1.70;43.40
8557;DHT22;4316;53.840;10.762;2024-01-15T01:55:02;1.70;43.20
8557;DHT22;4316;53.840;10.762;2024-01-15T01:57:29;1.70;42.50
8557;DHT22;4316;53.840;10.762;2024-01-15T01:59:56;1.70;44.60
8557;DHT22;4316;53.840;10.762;2024-01-15T02:02:24;1.80;45.40
8557;DHT22;4316;53.840;10.762;2024-01-15T02:04:50;1.80;43.20
8557;DHT22;4316;53.840;10.762;2024-01-15T02:07:16;1.80;42.30
8557;DHT22;4316;53.840;10.762;2024-01-15T02:09:44;1.80;42.60
8557;DHT22;4316;53.840;10.762;2024-01-15T02:12:10;1.80;42.80
8557;DHT22;4316;53.840;10.762;2024-01-15T02:14:36;1.80;42.60
8557;DHT22;4316;53.840;10.762;2024-01-15T02:17:02;1.80;44.30
8557;DHT22;4316;53.840;10.762;2024-01-15T02:19:28;1.80;43.40
8557;DHT22;4316;53.840;10.762;2024-01-15T02:21:53;1.80;42.10
8557;DHT22;4316;53.840;10.762;2024-01-15T02:24:19;1.80;44.30
8557;DHT22;4316;53.840;10.762;2024-01-15T02:26:45;1.90;43.70
8557;DHT22;4316;53.840;10.762;2024-01-15T02:29:11;1.80;42.30
8557;DHT22;4316;53.840;10.762;2024-01-15T02:31:38;1.90;42.70
8557;DHT22;4316;53.840;10.762;2024-01-15T02:34:04;1.80;41.20
8557;DHT22;4316;53.840;10.762;2024-01-15T02:36:30;1.80;43.30
8557;DHT22;4316;53.840;10.762;2024-01-15T02:38:56;1.80;43.80
8557;DHT22;4316;53.840;10.762;2024-01-15T02:41:22;1.80;44.80
8557;DHT22;4316;53.840;10.762;2024-01-15T02:43:48;1.80;47.40
8557;DHT22;4316;53.840;10.762;2024-01-15T02:46:13;1.80;47.50
8557;DHT22;4316;53.840;10.762;2024-01-15T02:48:40;1.80;45.70
8557;DHT22;4316;53.840;10.762;2024-01-15T02:51:05;1.80;47.10
8557;DHT22;4316;53.840;10.762;2024-01-15T02:53:31;1.80;44.50
8557;DHT22;4316;53.840;10.762;2024-01-15T02:55:57;1.80;46.30
8557;DHT22;4316;53.840;10.762;2024-01-15T02:58:22;1.80;46.20
8557;DHT22;4316;53.840;10.762;2024-01-15T03:00:48;1.80;48.80
8557;DHT22;4316;53.840;10.762;2024-01-15T03:03:14;1.80;47.90
8557;DHT22;4316;53.840;10.762;2024-01-15T03:05:40;1.80;47.30
8557;DHT22;4316;53.840;10.762;2024-01-15T03:08:05;1.80;45.80
8557;DHT22;4316;53.840;10.762;2024-01-15T03:10:31;1.80;45.20
8557;DHT22;4316;53.840;10.762;2024-01-15T03:12:57;1.90;46.00
8557;DHT22;4316;53.840;10.762;2024-01-15T03:15:23;1.90;44.20
8557;DHT22;4316;53.840;10.762;2024-01-15T03:17:49;1.90;42.40
8557;DHT22;4316;53.840;10.762;2024-01-15T03:20:14;1.90;41.70
8557;DHT22;4316;53.840;10.762;2024-01-15T03:22:40;1.90;42.00
8557;DHT22;4316;53.840;10.762;2024-01-15T03:25:07;1.90;42.50
8557;DHT22;4316;53.840;10.762;2024-01-15T03:27:32;1.90;42.10
8557;DHT22;4316;53.840;10.762;2024-01-15T03:29:59;2.00;40.00
8557;DHT22;4316;53.840;10.762;2024-01-15T03:32:24;2.00;38.20
8557;DHT22;4316;53.840;10.762;2024-01-15T03:34:50;2.00;34.50
8557;DHT22;4316;53.840;10.762;2024-01-15T03:37:17;2.00;33.20
8557;DHT22;4316;53.840;10.762;2024-01-15T03:39:43;1.90;30.30
8557;DHT22;4316;53.840;10.762;2024-01-15T03:42:09;1.90;30.70
8557;DHT22;4316;53.840;10.762;2024-01-15T03:44:35;2.00;29.20
8557;DHT22;4316;53.840;10.762;2024-01-15T03:47:01;2.00;26.80
8557;DHT22;4316;53.840;10.762;2024-01-15T03:49:26;2.00;26.90
8557;DHT22;4316;53.840;10.762;2024-01-15T03:51:52;2.00;25.00
8557;DHT22;4316;53.840;10.762;2024-01-15T03:54:18;2.10;24.20
8557;DHT22;4316;53.840;10.762;2024-01-15T03:56:44;2.10;23.30
8557;DHT22;4316;53.840;10.762;2024-01-15T03:59:10;2.10;21.20
8557;DHT22;4316;53.840;10.762;2024-01-15T04:01:35;2.10;19.20
8557;DHT22;4316;53.840;10.762;2024-01-15T04:04:01;2.10;15.20
8557;DHT22;4316;53.840;10.762;2024-01-15T04:06:27;2.10;15.50
8557;DHT22;4316;53.840;10.762;2024-01-15T04:08:53;2.10;15.60
8557;DHT22;4316;53.840;10.762;2024-01-15T04:11:18;2.10;15.50
8557;DHT22;4316;53.840;10.762;2024-01-15T04:13:44;2.10;15.50
8557;DHT22;4316;53.840;10.762;2024-01-15T04:16:10;2.10;13.80
8557;DHT22;4316;53.840;10.762;2024-01-15T04:18:35;2.10;12.70
8557;DHT22;4316;53.840;10.762;2024-01-15T04:21:04;2.10;12.70
8557;DHT22;4316;53.840;10.762;2024-01-15T04:23:30;2.10;11.20
8557;DHT22;4316;53.840;10.762;2024-01-15T04:25:57;2.10;11.80
8557;DHT22;4316;53.840;10.762;2024-01-15T04:28:22;2.10;11.50
8557;DHT22;4316;53.840;10.762;2024-01-15T04:30:48;2.10;10.10
8557;DHT22;4316;53.840;10.762;2024-01-15T04:33:14;2.10;10.40
8557;DHT22;4316;53.840;10.762;2024-01-15T04:35:39;2.10;9.10
8557;DHT22;4316;53.840;10.762;2024-01-15T04:38:05;2.10;8.30
8557;DHT22;4316;53.840;10.762;2024-01-15T04:40:31;2.10;5.00
8557;DHT22;4316;53.840;10.762;2024-01-15T04:42:57;2.10;5.80
8557;DHT22;4316;53.840;10.762;2024-01-15T04:45:23;2.10;5.40
8557;DHT22;4316;53.840;10.762;2024-01-15T04:47:54;2.10;2.00
8557;DHT22;4316;53.840;10.762;2024-01-15T04:50:21;2.10;2.40
8557;DHT22;4316;53.840;10.762;2024-01-15T04:52:47;2.10;1.00
8557;DHT22;4316;53.840;10.762;2024-01-15T04:55:13;2.00;1.00
8557;DHT22;4316;53.840;10.762;2024-01-15T04:57:38;2.10;1.00
8557;DHT22;4316;53.840;10.762;2024-01-15T05:00:05;2.10;1.00
8557;DHT22;4316;53.840;10.762;2024-01-15T05:02:30;2.10;1.00
8557;DHT22;4316;53.840;10.762;2024-01-15T05:04:56;2.00;1.00
8557;DHT22;4316;53.840;10.762;2024-01-15T05:07:22;2.00;1.00
8557;DHT22;4316;53.840;10.762;2024-01-15T05:09:48;2.10;1.00
8557;DHT22;4316;53.840;10.762;2024-01-15T05:12:13;2.10;1.00
8557;DHT22;4316;53.840;10.762;2024-01-15T05:14:39;2.10;1.00
8557;DHT22;4316;53.840;10.762;2024-01-15T05:17:05;2.20;1.00
8557;DHT22;4316;53.840;10.762;2024-01-15T05:19:31;2.20;1.00
8557;DHT22;4316;53.840;10.762;2024-01-15T05:21:57;2.20;1.00
8557;DHT22;4316;53.840;10.762;2024-01-15T05:24:22;2.10;1.00
8557;DHT22;4316;53.840;10.762;2024-01-15T05:26:48;2.10;1.00
8557;DHT22;4316;53.840;10.762;2024-01-15T05:29:14;2.20;1.00
8557;DHT22;4316;53.840;10.762;2024-01-15T05:31:40;2.20;1.00
8557;DHT22;4316;53.840;10.762;2024-01-15T05:34:05;2.20;1.00
8557;DHT22;4316;53.840;10.762;2024-01-15T05:36:31;2.30;1.00
8557;DHT22;4316;53.840;10.762;2024-01-15T05:38:57;2.20;1.00
8557;DHT22;4316;53.840;10.762;2024-01-15T05:41:22;2.30;1.00
8557;DHT22;4316;53.840;10.762;2024-01-15T05:43:48;2.30;1.00
8557;DHT22;4316;53.840;10.762;2024-01-15T05:46:17;2.30;1.00
8557;DHT22;4316;53.840;10.762;2024-01-15T05:48:43;2.40;1.00
8557;DHT22;4316;53.840;10.762;2024-01-15T05:51:08;2.30;1.00
8557;DHT22;4316;53.840;10.762;2024-01-15T05:53:35;2.30;1.00
8557;DHT22;4316;53.840;10.762;2024-01-15T05:56:01;2.40;1.00
8557;DHT22;4316;53.840;10.762;2024-01-15T05:58:27;2.40;1.00
8557;DHT22;4316;53.840;10.762;2024-01-15T06:00:52;2.40;1.00
8557;DHT22;4316;53.840;10.762;2024-01-15T06:03:18;2.40;1.00
8557;DHT22;4316;53.840;10.762;2024-01-15T06:05:44;2.40;1.00
8557;DHT22;4316;53.840;10.762;2024-01-15T06:08:10;2.40;1.00
8557;DHT22;4316;53.840;10.762;2024-01-15T06:10:36;2.40;1.00
8557;DHT22;4316;53.840;10.762;2024-01-15T06:13:01;2.40;1.00
8557;DHT22;4316;53.840;10.762;2024-01-15T06:15:27;2.40;1.00
8557;DHT22;4316;53.840;10.762;2024-01-15T06:17:53;2.40;1.00
8557;DHT22;4316;53.840;10.762;2024-01-15T06:20:19;2.40;1.00
8557;DHT22;4316;53.840;10.762;2024-01-15T06:22:45;2.40;1.00
8557;DHT22;4316;53.840;10.762;2024-01-15T06:25:10;2.40;1.00
8557;DHT22;4316;53.840;10.762;2024-01-15T06:27:36;2.40;1.00
8557;DHT22;4316;53.840;10.762;2024-01-15T06:30:02;2.40;1.00
8557;DHT22;4316;53.840;10.762;2024-01-15T06:32:28;2.40;1.00
8557;DHT22;4316;53.840;10.762;2024-01-15T06:34:53;2.40;1.00
8557;DHT22;4316;53.840;10.762;2024-01-15T06:37:21;2.40;1.00
8557;DHT22;4316;53.840;10.762;2024-01-15T06:39:47;2.40;1.00
8557;DHT22;4316;53.840;10.762;2024-01-15T06:42:13;2.40;1.00
8557;DHT22;4316;53.840;10.762;2024-01-15T06:44:39;2.30;1.00
8557;DHT22;4316;53.840;10.762;2024-01-15T06:47:05;2.30;1.00
8557;DHT22;4316;53.840;10.762;2024-01-15T06:49:31;2.30;1.00
8557;DHT22;4316;53.840;10.762;2024-01-15T06:51:57;2.30;1.00
8557;DHT22;4316;53.840;10.762;2024-01-15T06:54:23;2.30;1.00
8557;DHT22;4316;53.840;10.762;2024-01-15T06:56:49;2.30;1.00
8557;DHT22;4316;53.840;10.762;2024-01-15T06:59:15;2.20;1.00
8557;DHT22;4316;53.840;10.762;2024-01-15T07:01:41;2.20;1.00
8557;DHT22;4316;53.840;10.762;2024-01-15T07:04:07;2.30;1.00
8557;DHT22;4316;53.840;10.762;2024-01-15T07:06:33;2.20;1.00
8557;DHT22;4316;53.840;10.762;2024-01-15T07:08:59;2.20;1.00
8557;DHT22;4316;53.840;10.762;2024-01-15T07:11:34;2.20;1.00
8557;DHT22;4316;53.840;10.762;2024-01-15T07:14:00;2.20;1.00
8557;DHT22;4316;53.840;10.762;2024-01-15T07:16:26;2.10;1.00
8557;DHT22;4316;53.840;10.762;2024-01-15T07:18:52;2.10;1.00
8557;DHT22;4316;53.840;10.762;2024-01-15T07:21:17;2.10;1.00
8557;DHT22;4316;53.840;10.762;2024-01-15T07:23:43;2.10;1.00
8557;DHT22;4316;53.840;10.762;2024-01-15T07:26:09;2.00;1.00
8557;DHT22;4316;53.840;10.762;2024-01-15T07:28:35;2.00;1.00
8557;DHT22;4316;53.840;10.762;2024-01-15T07:31:00;2.10;1.00
8557;DHT22;4316;53.840;10.762;2024-01-15T07:33:29;2.10;1.00
8557;DHT22;4316;53.840;10.762;2024-01-15T07:35:55;2.20;1.00
8557;DHT22;4316;53.840;10.762;2024-01-15T07:38:21;2.20;1.00
8557;DHT22;4316;53.840;10.762;2024-01-15T07:40:48;2.20;1.00
8557;DHT22;4316;53.840;10.762;2024-01-15T07:43:15;2.20;1.00
8557;DHT22;4316;53.840;10.762;2024-01-15T07:45:41;2.20;1.00
8557;DHT22;4316;53.840;10.762;2024-01-15T07:48:06;2.30;1.00
8557;DHT22;4316;53.840;10.762;2024-01-15T07:50:32;2.30;1.00
8557;DHT22;4316;53.840;10.762;2024-01-15T07:52:58;2.30;1.00
8557;DHT22;4316;53.840;10.762;2024-01-15T07:55:24;2.30;1.00
8557;DHT22;4316;53.840;10.762;2024-01-15T07:57:49;2.30;1.00
8557;DHT22;4316;53.840;10.762;2024-01-15T08:00:17;2.30;1.00
8557;DHT22;4316;53.840;10.762;2024-01-15T08:02:43;2.30;1.00
8557;DHT22;4316;53.840;10.762;2024-01-15T08:05:08;2.40;1.00
8557;DHT22;4316;53.840;10.762;2024-01-15T08:07:34;2.40;1.00
8557;DHT22;4316;53.840;10.762;2024-01-15T08:10:00;2.50;1.00
8557;DHT22;4316;53.840;10.762;2024-01-15T08:12:26;2.50;1.00
8557;DHT22;4316;53.840;10.762;2024-01-15T08:14:51;2.50;1.00
8557;DHT22;4316;53.840;10.762;2024-01-15T08:17:17;2.50;1.00
8557;DHT22;4316;53.840;10.762;2024-01-15T08:19:43;2.60;1.00
8557;DHT22;4316;53.840;10.762;2024-01-15T08:22:09;2.60;1.00
8557;DHT22;4316;53.840;10.762;2024-01-15T08:24:35;2.50;1.00
8557;DHT22;4316;53.840;10.762;2024-01-15T08:27:01;2.60;1.00
8557;DHT22;4316;53.840;10.762;2024-01-15T08:29:27;2.60;1.00
8557;DHT22;4316;53.840;10.762;2024-01-15T08:31:53;2.70;1.00
8557;DHT22;4316;53.840;10.762;2024-01-15T08:34:18;2.70;1.00
8557;DHT22;4316;53.840;10.762;2024-01-15T08:36:44;2.70;1.00
8557;DHT22;4316;53.840;10.762;2024-01-15T08:39:10;2.80;1.00
8557;DHT22;4316;53.840;10.762;2024-01-15T08:41:36;2.80;1.00
8557;DHT22;4316;53.840;10.762;2024-01-15T08:44:02;2.80;1.00
8557;DHT22;4316;53.840;10.762;2024-01-15T08:46:30;2.80;1.00
8557;DHT22;4316;53.840;10.762;2024-01-15T08:48:56;2.70;1.00
8557;DHT22;4316;53.840;10.762;2024-01-15T08:51:22;2.70;1.00
8557;DHT22;4316;53.840;10.762;2024-01-15T08:53:48;2.70;1.00
8557;DHT22;4316;53.840;10.762;2024-01-15T08:56:13;2.70;1.00
8557;DHT22;4316;53.840;10.762;2024-01-15T08:58:39;2.70;1.00
8557;DHT22;4316;53.840;10.762;2024-01-15T09:01:05;2.70;1.00
8557;DHT22;4316;53.840;10.762;2024-01-15T09:03:31;2.70;1.00
8557;DHT22;4316;53.840;10.762;2024-01-15T09:05:56;2.60;1.00
8557;DHT22;4316;53.840;10.762;2024-01-15T09:08:22;2.70;1.00
8557;DHT22;4316;53.840;10.762;2024-01-15T09:10:48;2.80;1.00
8557;DHT22;4316;53.840;10.762;2024-01-15T09:13:14;2.80;1.00
8557;DHT22;4316;53.840;10.762;2024-01-15T09:15:39;2.90;1.00
8557;DHT22;4316;53.840;10.762;2024-01-15T09:18:05;2.90;1.00
8557;DHT22;4316;53.840;10.762;2024-01-15T09:20:31;3.30;1.00
8557;DHT22;4316;53.840;10.762;2024-01-15T09:22:57;3.50;1.00
8557;DHT22;4316;53.840;10.762;2024-01-15T09:25:23;3.50;1.00
8557;DHT22;4316;53.840;10.762;2024-01-15T09:27:49;3.50;1.00
8557;DHT22;4316;53.840;10.762;2024-01-15T09:30:15;3.40;1.00
8557;DHT22;4316;53.840;10.762;2024-01-15T09:32:40;3.40;1.00
8557;DHT22;4316;53.840;10.762;2024-01-15T09:35:07;3.20;1.00
8557;DHT22;4316;53.840;10.762;2024-01-15T09:37:32;3.10;1.00
8557;DHT22;4316;53.840;10.762;2024-01-15T09:39:58;3.10;1.00
8557;DHT22;4316;53.840;10.762;2024-01-15T09:42:24;3.10;1.00
8557;DHT22;4316;53.840;10.762;2024-01-15T09:44:51;3.10;1.00
8557;DHT22;4316;53.840;10.762;2024-01-15T09:47:18;3.10;1.00
8557;DHT22;4316;53.840;10.762;2024-01-15T09:49:44;3.10;1.00
8557;DHT22;4316;53.840;10.762;2024-01-15T09:52:11;3.30;1.00
8557;DHT22;4316;53.840;10.762;2024-01-15T09:54:37;3.90;1.00
8557;DHT22;4316;53.840;10.762;2024-01-15T09:57:04;4.80;1.00
8557;DHT22;4316;53.840;10.762;2024-01-15T09:59:30;4.60;1.00
8557;DHT22;4316;53.840;10.762;2024-01-15T10:01:57;5.00;1.00
8557;DHT22;4316;53.840;10.762;2024-01-15T10:04:24;4.80;1.00
8557;DHT22;4316;53.840;10.762;2024-01-15T10:06:51;4.50;1.00
8557;DHT22;4316;53.840;10.762;2024-01-15T10:09:17;4.50;1.00
8557;DHT22;4316;53.840;10.762;2024-01-15T10:11:44;4.30;1.00
8557;DHT22;4316;53.840;10.762;2024-01-15T10:14:13;4.10;1.00
8557;DHT22;4316;53.840;10.762;2024-01-15T10:16:40;4.00;1.00
8557;DHT22;4316;53.840;10.762;2024-01-15T10:19:06;4.20;1.00
8557;DHT22;4316;53.840;10.762;2024-01-15T10:21:32;4.60;1.00
8557;DHT22;4316;53.840;10.762;2024-01-15T10:24:01;4.50;1.00
8557;DHT22;4316;53.840;10.762;2024-01-15T10:26:28;4.50;1.00
8557;DHT22;4316;53.840;10.762;2024-01-15T10:28:54;4.50;1.00
8557;DHT22;4316;53.840;10.762;2024-01-15T10:31:20;4.20;1.00
8557;DHT22;4316;53.840;10.762;2024-01-15T10:33:50;3.90;1.00
8557;DHT22;4316;53.840;10.762;2024-01-15T10:36:17;3.70;1.00
8557;DHT22;4316;53.840;10.762;2024-01-15T10:38:43;3.40;1.00
8557;DHT22;4316;53.840;10.762;2024-01-15T10:41:09;3.40;1.00
8557;DHT22;4316;53.840;10.762;2024-01-15T10:43:35;3.40;1.00
8557;DHT22;4316;53.840;10.762;2024-01-15T10:46:02;3.40;1.00
8557;DHT22;4316;53.840;10.762;2024-01-15T10:48:28;3.30;1.00
8557;DHT22;4316;53.840;10.762;2024-01-15T10:50:57;3.90;1.00
8557;DHT22;4316;53.840;10.762;2024-01-15T10:53:23;5.00;99.90
8557;DHT22;4316;53.840;10.762;2024-01-15T10:55:50;5.10;99.90
8557;DHT22;4316;53.840;10.762;2024-01-15T10:58:17;5.30;99.90
8557;DHT22;4316;53.840;10.762;2024-01-15T11:00:44;5.10;99.90
8557;DHT22;4316;53.840;10.762;2024-01-15T11:03:10;4.70;99.90
8557;DHT22;4316;53.840;10.762;2024-01-15T11:05:42;4.30;99.90
8557;DHT22;4316;53.840;10.762;2024-01-15T11:08:08;3.90;99.90
8557;DHT22;4316;53.840;10.762;2024-01-15T11:10:45;3.70;99.90
8557;DHT22;4316;53.840;10.762;2024-01-15T11:15:58;3.40;99.90
8557;DHT22;4316;53.840;10.762;2024-01-15T11:19:01;3.30;99.90
8557;DHT22;4316;53.840;10.762;2024-01-15T11:29:06;2.70;1.00
8557;DHT22;4316;53.840;10.762;2024-01-15T11:34:10;2.50;1.00
8557;DHT22;4316;53.840;10.762;2024-01-15T11:42:03;2.50;1.00
8557;DHT22;4316;53.840;10.762;2024-01-15T11:44:30;2.50;1.00
8557;DHT22;4316;53.840;10.762;2024-01-15T11:46:59;2.50;1.00
8557;DHT22;4316;53.840;10.762;2024-01-15T11:52:18;2.60;1.00
8557;DHT22;4316;53.840;10.762;2024-01-15T11:55:11;2.50;1.00
8557;DHT22;4316;53.840;10.762;2024-01-15T12:00:11;2.60;1.00
8557;DHT22;4316;53.840;10.762;2024-01-15T12:02:41;2.60;1.00
8557;DHT22;4316;53.840;10.762;2024-01-15T12:05:11;2.60;1.00
8557;DHT22;4316;53.840;10.762;2024-01-15T12:07:41;2.60;1.00
8557;DHT22;4316;53.840;10.762;2024-01-15T12:10:18;2.60;1.00
8557;DHT22;4316;53.840;10.762;2024-01-15T12:15:34;2.40;1.00
8557;DHT22;4316;53.840;10.762;2024-01-15T12:18:01;2.40;1.00
8557;DHT22;4316;53.840;10.762;2024-01-15T12:20:31;2.40;1.00
8557;DHT22;4316;53.840;10.762;2024-01-15T12:22:57;2.40;1.00
8557;DHT22;4316;53.840;10.762;2024-01-15T12:25:24;2.40;1.00
8557;DHT22;4316;53.840;10.762;2024-01-15T12:27:53;2.40;1.00
8557;DHT22;4316;53.840;10.762;2024-01-15T12:30:19;2.40;1.00
8557;DHT22;4316;53.840;10.762;2024-01-15T12:32:45;2.40;1.00
8557;DHT22;4316;53.840;10.762;2024-01-15T12:35:12;2.30;1.00
8557;DHT22;4316;53.840;10.762;2024-01-15T12:37:42;2.40;1.00
8557;DHT22;4316;53.840;10.762;2024-01-15T12:40:09;2.40;1.00
8557;DHT22;4316;53.840;10.762;2024-01-15T12:42:36;2.40;1.00
8557;DHT22;4316;53.840;10.762;2024-01-15T12:45:03;2.30;1.00
8557;DHT22;4316;53.840;10.762;2024-01-15T12:47:30;2.40;1.00
8557;DHT22;4316;53.840;10.762;2024-01-15T12:49:58;2.30;1.00
8557;DHT22;4316;53.840;10.762;2024-01-15T12:52:27;2.30;1.00
8557;DHT22;4316;53.840;10.762;2024-01-15T12:54:52;2.30;1.00
8557;DHT22;4316;53.840;10.762;2024-01-15T12:57:18;2.20;1.00
8557;DHT22;4316;53.840;10.762;2024-01-15T12:59:45;2.20;1.00
8557;DHT22;4316;53.840;10.762;2024-01-15T13:02:12;2.20;1.00
8557;DHT22;4316;53.840;10.762;2024-01-15T13:04:39;2.10;1.00
8557;DHT22;4316;53.840;10.762;2024-01-15T13:07:06;2.00;1.00
8557;DHT22;4316;53.840;10.762;2024-01-15T13:09:32;1.90;1.00
8557;DHT22;4316;53.840;10.762;2024-01-15T13:11:59;1.90;1.00
8557;DHT22;4316;53.840;10.762;2024-01-15T13:14:24;1.90;1.00
8557;DHT22;4316;53.840;10.762;2024-01-15T13:16:53;2.00;1.00
8557;DHT22;4316;53.840;10.762;2024-01-15T13:19:20;2.00;1.00
8557;DHT22;4316;53.840;10.762;2024-01-15T13:21:47;1.90;1.00
8557;DHT22;4316;53.840;10.762;2024-01-15T13:24:13;1.90;1.00
8557;DHT22;4316;53.840;10.762;2024-01-15T13:26:40;1.90;1.00
8557;DHT22;4316;53.840;10.762;2024-01-15T13:29:06;1.90;1.00
8557;DHT22;4316;53.840;10.762;2024-01-15T13:31:32;1.90;1.00
8557;DHT22;4316;53.840;10.762;2024-01-15T13:33:59;1.90;1.00
8557;DHT22;4316;53.840;10.762;2024-01-15T13:36:26;1.90;1.00
8557;DHT22;4316;53.840;10.762;2024-01-15T13:38:52;1.80;1.00
8557;DHT22;4316;53.840;10.762;2024-01-15T13:41:20;1.70;1.00
8557;DHT22;4316;53.840;10.762;2024-01-15T13:43:50;1.70;1.00
8557;DHT22;4316;53.840;10.762;2024-01-15T13:46:18;1.80;1.00
8557;DHT22;4316;53.840;10.762;2024-01-15T13:48:44;1.80;1.00
8557;DHT22;4316;53.840;10.762;2024-01-15T13:51:10;1.80;1.00
8557;DHT22;4316;53.840;10.762;2024-01-15T13:53:38;1.80;1.00
8557;DHT22;4316;53.840;10.762;2024-01-15T13:56:05;1.80;1.00
8557;DHT22;4316;53.840;10.762;2024-01-15T13:58:31;1.80;1.00
8557;DHT22;4316;53.840;10.762;2024-01-15T14:00:58;1.80;1.00
8557;DHT22;4316;53.840;10.762;2024-01-15T14:03:24;1.90;1.00
8557;DHT22;4316;53.840;10.762;2024-01-15T14:05:54;1.90;1.00
8557;DHT22;4316;53.840;10.762;2024-01-15T14:08:19;1.90;1.00
8557;DHT22;4316;53.840;10.762;2024-01-15T14:10:45;2.00;1.00
8557;DHT22;4316;53.840;10.762;2024-01-15T14:13:11;2.00;1.00
8557;DHT22;4316;53.840;10.762;2024-01-15T14:15:37;2.00;1.00
8557;DHT22;4316;53.840;10.762;2024-01-15T14:18:03;1.90;1.00
8557;DHT22;4316;53.840;10.762;2024-01-15T14:20:29;1.80;1.00
8557;DHT22;4316;53.840;10.762;2024-01-15T14:22:54;1.90;1.00
8557;DHT22;4316;53.840;10.762;2024-01-15T14:25:21;1.80;1.00
8557;DHT22;4316;53.840;10.762;2024-01-15T14:27:47;1.90;1.00
8557;DHT22;4316;53.840;10.762;2024-01-15T14:30:13;2.10;1.00
8557;DHT22;4316;53.840;10.762;2024-01-15T14:32:42;2.10;1.00
8557;DHT22;4316;53.840;10.762;2024-01-15T14:35:08;2.20;1.00
8557;DHT22;4316;53.840;10.762;2024-01-15T14:37:37;2.30;1.00
8557;DHT22;4316;53.840;10.762;2024-01-15T14:40:04;2.40;1.00
8557;DHT22;4316;53.840;10.762;2024-01-15T14:42:30;2.50;1.00
8557;DHT22;4316;53.840;10.762;2024-01-15T14:44:56;2.70;1.00
8557;DHT22;4316;53.840;10.762;2024-01-15T14:47:22;2.60;1.00
8557;DHT22;4316;53.840;10.762;2024-01-15T14:49:50;2.60;1.00
8557;DHT22;4316;53.840;10.762;2024-01-15T14:52:16;2.70;1.00
8557;DHT22;4316;53.840;10.762;2024-01-15T14:54:42;2.80;1.00
8557;DHT22;4316;53.840;10.762;2024-01-15T14:57:08;2.80;1.00
8557;DHT22;4316;53.840;10.762;2024-01-15T14:59:33;2.90;1.00
8557;DHT22;4316;53.840;10.762;2024-01-15T15:02:00;2.90;1.00
8557;DHT22;4316;53.840;10.762;2024-01-15T15:04:26;2.90;1.00
8557;DHT22;4316;53.840;10.762;2024-01-15T15:06:52;2.80;1.00
8557;DHT22;4316;53.840;10.762;2024-01-15T15:09:17;2.80;1.00
8557;DHT22;4316;53.840;10.762;2024-01-15T15:11:43;2.80;1.00
8557;DHT22;4316;53.840;10.762;2024-01-15T15:14:09;2.80;1.00
8557;DHT22;4316;53.840;10.762;2024-01-15T15:16:36;2.80;1.00
8557;DHT22;4316;53.840;10.762;2024-01-15T15:19:01;2.80;1.00
8557;DHT22;4316;53.840;10.762;2024-01-15T15:21:27;2.80;1.00
8557;DHT22;4316;53.840;10.762;2024-01-15T15:23:54;2.80;1.00
8557;DHT22;4316;53.840;10.762;2024-01-15T15:26:20;2.80;1.00
8557;DHT22;4316;53.840;10.762;2024-01-15T15:28:46;2.80;1.00
8557;DHT22;4316;53.840;10.762;2024-01-15T15:31:11;2.70;1.00
8557;DHT22;4316;53.840;10.762;2024-01-15T15:33:37;2.70;1.00
8557;DHT22;4316;53.840;10.762;2024-01-15T15:36:04;2.70;1.00
8557;DHT22;4316;53.840;10.762;2024-01-15T15:38:34;2.70;1.00
8557;DHT22;4316;53.840;10.762;2024-01-15T15:41:00;2.70;1.00
8557;DHT22;4316;53.840;10.762;2024-01-15T15:43:27;2.70;1.00
8557;DHT22;4316;53.840;10.762;2024-01-15T15:45:52;2.60;1.00
8557;DHT22;4316;53.840;10.762;2024-01-15T15:48:18;2.60;1.00
8557;DHT22;4316;53.840;10.762;2024-01-15T15:50:44;2.60;1.00
8557;DHT22;4316;53.840;10.762;2024-01-15T15:53:11;2.60;1.00
8557;DHT22;4316;53.840;10.762;2024-01-15T15:55:37;2.60;1.00
8557;DHT22;4316;53.840;10.762;2024-01-15T15:58:10;2.50;1.00
8557;DHT22;4316;53.840;10.762;2024-01-15T16:00:36;2.50;1.00
8557;DHT22;4316;53.840;10.762;2024-01-15T16:03:02;2.50;1.00
8557;DHT22;4316;53.840;10.762;2024-01-15T16:05:27;2.50;1.00
8557;DHT22;4316;53.840;10.762;2024-01-15T16:07:53;2.50;1.00
8557;DHT22;4316;53.840;10.762;2024-01-15T16:10:19;2.50;1.00
8557;DHT22;4316;53.840;10.762;2024-01-15T16:12:45;2.50;1.00
8557;DHT22;4316;53.840;10.762;2024-01-15T16:15:21;2.50;1.00
8557;DHT22;4316;53.840;10.762;2024-01-15T16:17:48;2.50;1.00
8557;DHT22;4316;53.840;10.762;2024-01-15T16:20:15;2.40;1.00
8557;DHT22;4316;53.840;10.762;2024-01-15T16:22:41;2.40;1.00
8557;DHT22;4316;53.840;10.762;2024-01-15T16:25:07;2.40;1.00
8557;DHT22;4316;53.840;10.762;2024-01-15T16:27:33;2.30;1.00
8557;DHT22;4316;53.840;10.762;2024-01-15T16:29:59;2.30;1.00
8557;DHT22;4316;53.840;10.762;2024-01-15T16:32:25;2.30;1.00
8557;DHT22;4316;53.840;10.762;2024-01-15T16:34:51;2.30;1.00